Time;durP1;ratioP1;P1;durP2;ratioP2;P2;SDS_P1;SDS_P2;PMS_P1;PMS_P2;Temp;Humidity;BMP_temperature;BMP_pressure;BME280_temperature;BME280_humidity;BME280_pressure;Samples;Min_cycle;Max_cycle;Signal;HPM_P1;HPM_P2
2024/03/07 00:00:17;;;;;;;;;;;23.00;39.10;;;;;;5056518;28;20291;-65
2024/03/07 00:02:47;;;;;;;;;;;23.00;39.00;;;;;;5056137;28;19974;-64
2024/03/07 00:05:16;;;;;;;;;;;23.00;39.10;;;;;;5056356;28;19925;-64
2024/03/07 00:07:43;;;;;;;;;;;23.00;39.20;;;;;;5056263;28;20100;-64
2024/03/07 00:10:10;;;;;;;;;;;22.90;39.10;;;;;;5056167;28;20015;-65
2024/03/07 00:12:38;;;;;;;;;;;22.90;39.20;;;;;;5056331;28;19974;-64
2024/03/07 00:15:06;;;;;;;;;;;22.90;39.20;;;;;;5055731;28;19985;-64
2024/03/07 00:17:34;;;;;;;;;;;23.00;39.30;;;;;;5056215;28;19925;-64
2024/03/07 00:20:04;;;;;;;;;;;23.00;39.20;;;;;;5056077;28;20012;-64
2024/03/07 00:22:31;;;;;;;;;;;23.00;39.10;;;;;;5055782;28;19932;-64
2024/03/07 00:24:59;;;;;;;;;;;23.00;39.10;;;;;;5056247;28;19925;-64
2024/03/07 00:27:26;;;;;;;;;;;23.00;39.10;;;;;;5055651;28;20019;-64
2024/03/07 00:29:53;;;;;;;;;;;23.00;39.10;;;;;;5055047;28;20297;-64
2024/03/07 00:32:20;;;;;;;;;;;23.00;39.10;;;;;;5038342;28;19939;-64
2024/03/07 00:34:48;;;;;;;;;;;23.00;39.10;;;;;;5055743;28;19984;-63
2024/03/07 00:37:15;;;;;;;;;;;23.00;39.10;;;;;;5055780;28;19931;-65
2024/03/07 00:39:42;;;;;;;;;;;23.00;39.10;;;;;;5055859;28;19925;-64
2024/03/07 00:42:09;;;;;;;;;;;23.00;39.10;;;;;;5055530;28;19967;-64
2024/03/07 00:44:36;;;;;;;;;;;23.00;39.10;;;;;;5055453;28;19931;-64
2024/03/07 00:47:04;;;;;;;;;;;23.00;39.10;;;;;;5054489;28;19976;-64
2024/03/07 00:49:31;;;;;;;;;;;23.00;39.10;;;;;;5055457;28;20412;-64
2024/03/07 00:51:58;;;;;;;;;;;23.00;39.10;;;;;;5037730;28;19986;-64
2024/03/07 00:54:25;;;;;;;;;;;23.00;39.00;;;;;;5055430;28;19958;-64
2024/03/07 00:56:53;;;;;;;;;;;23.00;39.00;;;;;;5054909;28;20275;-64
2024/03/07 00:59:20;;;;;;;;;;;23.00;39.00;;;;;;5055192;28;20353;-65
2024/03/07 01:01:49;;;;;;;;;;;23.00;39.00;;;;;;5055566;28;20293;-64
2024/03/07 01:04:16;;;;;;;;;;;23.00;39.00;;;;;;5054461;28;19924;-64
2024/03/07 01:06:43;;;;;;;;;;;23.00;39.00;;;;;;5054858;28;19929;-64
2024/03/07 01:09:14;;;;;;;;;;;23.00;38.90;;;;;;5054679;28;19968;-63
2024/03/07 01:11:42;;;;;;;;;;;22.90;38.90;;;;;;5055325;28;19924;-63
2024/03/07 01:14:09;;;;;;;;;;;22.90;38.90;;;;;;5053772;28;20350;-63
2024/03/07 01:16:36;;;;;;;;;;;22.90;38.90;;;;;;5053902;28;19932;-64
2024/03/07 01:19:05;;;;;;;;;;;22.90;38.90;;;;;;5054287;28;19935;-64
2024/03/07 01:21:33;;;;;;;;;;;22.90;38.90;;;;;;5055216;28;19925;-64
2024/03/07 01:24:04;;;;;;;;;;;22.90;38.90;;;;;;5054261;28;19931;-64
2024/03/07 01:26:33;;;;;;;;;;;22.90;38.90;;;;;;5054494;28;20325;-64
2024/03/07 01:29:00;;;;;;;;;;;22.90;38.80;;;;;;5054316;28;19929;-64
2024/03/07 01:31:27;;;;;;;;;;;22.90;38.80;;;;;;5055025;28;19931;-64
2024/03/07 01:33:54;;;;;;;;;;;22.90;38.80;;;;;;5054520;28;19932;-64
2024/03/07 01:36:21;;;;;;;;;;;22.90;38.80;;;;;;5054205;28;19928;-64
2024/03/07 01:38:49;;;;;;;;;;;22.90;38.80;;;;;;5054353;28;20667;-64
2024/03/07 01:41:16;;;;;;;;;;;22.90;38.80;;;;;;5054566;28;19928;-64
2024/03/07 01:43:43;;;;;;;;;;;22.90;38.80;;;;;;5054594;28;20390;-64
2024/03/07 01:46:10;;;;;;;;;;;22.90;38.80;;;;;;5054113;28;19933;-64
2024/03/07 01:48:38;;;;;;;;;;;22.90;38.70;;;;;;5054216;28;19932;-64
2024/03/07 01:51:05;;;;;;;;;;;22.90;38.70;;;;;;5054593;28;20271;-63
2024/03/07 01:53:32;;;;;;;;;;;22.90;38.70;;;;;;5053513;28;19971;-63
2024/03/07 01:56:00;;;;;;;;;;;22.90;38.70;;;;;;5054409;28;19971;-64
2024/03/07 01:58:27;;;;;;;;;;;22.80;38.70;;;;;;5053900;28;19928;-64
2024/03/07 02:00:54;;;;;;;;;;;22.80;38.70;;;;;;5052520;28;20492;-64
2024/03/07 02:03:21;;;;;;;;;;;22.90;38.70;;;;;;5053944;28;19955;-64
2024/03/07 02:05:48;;;;;;;;;;;22.80;38.60;;;;;;5053775;28;19964;-64
2024/03/07 02:08:16;;;;;;;;;;;22.80;38.70;;;;;;5052894;28;19955;-64
2024/03/07 02:10:43;;;;;;;;;;;22.80;38.70;;;;;;5053633;28;20386;-64
2024/03/07 02:13:10;;;;;;;;;;;22.90;38.70;;;;;;5053809;28;19931;-64
2024/03/07 02:15:37;;;;;;;;;;;22.80;38.70;;;;;;5054131;28;19928;-64
2024/03/07 02:18:04;;;;;;;;;;;22.90;38.80;;;;;;5053119;28;19932;-64
2024/03/07 02:20:31;;;;;;;;;;;22.80;38.70;;;;;;5053925;28;19972;-65
2024/03/07 02:22:58;;;;;;;;;;;22.80;38.80;;;;;;5053638;28;19925;-64
2024/03/07 02:25:25;;;;;;;;;;;22.80;38.90;;;;;;5053029;28;19979;-64
2024/03/07 02:27:52;;;;;;;;;;;22.70;38.80;;;;;;5053907;28;20317;-64
2024/03/07 02:30:19;;;;;;;;;;;22.70;38.80;;;;;;5053464;28;19924;-64
2024/03/07 02:32:54;;;;;;;;;;;22.70;38.90;;;;;;5053366;28;19929;-64
2024/03/07 02:35:22;;;;;;;;;;;22.80;38.90;;;;;;5053289;28;19964;-64
2024/03/07 02:37:51;;;;;;;;;;;22.80;38.80;;;;;;5053458;28;19925;-64
2024/03/07 02:40:17;;;;;;;;;;;22.80;38.80;;;;;;5053264;28;20013;-63
2024/03/07 02:42:44;;;;;;;;;;;22.80;38.80;;;;;;5052759;28;19974;-64
2024/03/07 02:45:14;;;;;;;;;;;22.80;38.80;;;;;;5053045;28;20382;-64
2024/03/07 02:47:43;;;;;;;;;;;22.80;38.80;;;;;;5053220;28;19932;-64
2024/03/07 02:50:11;;;;;;;;;;;22.80;38.80;;;;;;5053116;28;19924;-64
2024/03/07 02:52:38;;;;;;;;;;;22.80;38.80;;;;;;5053402;28;19925;-65
2024/03/07 02:55:06;;;;;;;;;;;22.80;38.80;;;;;;5053050;28;19925;-64
2024/03/07 02:57:33;;;;;;;;;;;22.80;38.80;;;;;;5052246;28;19943;-64
2024/03/07 03:00:00;;;;;;;;;;;22.70;38.70;;;;;;5053448;28;20002;-64
2024/03/07 03:02:27;;;;;;;;;;;22.80;38.80;;;;;;5052906;28;19932;-64
2024/03/07 03:04:54;;;;;;;;;;;22.80;38.70;;;;;;5053136;28;19971;-64
2024/03/07 03:07:21;;;;;;;;;;;22.80;38.80;;;;;;5052820;28;20015;-64
2024/03/07 03:09:48;;;;;;;;;;;22.80;38.70;;;;;;5052776;28;19924;-64
2024/03/07 03:12:15;;;;;;;;;;;22.80;38.70;;;;;;5052927;28;19925;-64
2024/03/07 03:14:43;;;;;;;;;;;22.80;38.70;;;;;;5052143;28;20533;-64
2024/03/07 03:17:11;;;;;;;;;;;22.80;38.70;;;;;;5052851;28;20412;-64
2024/03/07 03:19:38;;;;;;;;;;;22.80;38.70;;;;;;5053017;28;20286;-64
2024/03/07 03:22:05;;;;;;;;;;;22.80;38.70;;;;;;5053083;28;20015;-64
2024/03/07 03:24:31;;;;;;;;;;;22.80;38.70;;;;;;5052693;28;19979;-64
2024/03/07 03:26:58;;;;;;;;;;;22.80;38.70;;;;;;5052655;28;19978;-64
2024/03/07 03:29:28;;;;;;;;;;;22.80;38.70;;;;;;5053335;28;19964;-64
2024/03/07 03:31:55;;;;;;;;;;;22.70;38.80;;;;;;5056350;28;20019;-64
2024/03/07 03:34:22;;;;;;;;;;;22.70;38.80;;;;;;5056750;28;20011;-64
2024/03/07 03:36:49;;;;;;;;;;;22.70;38.80;;;;;;5056689;28;20387;-64
2024/03/07 03:39:16;;;;;;;;;;;22.70;38.90;;;;;;5056558;28;20448;-64
2024/03/07 03:41:43;;;;;;;;;;;22.70;38.80;;;;;;5052452;28;19924;-64
2024/03/07 03:44:11;;;;;;;;;;;22.70;38.80;;;;;;5056937;28;19967;-64
2024/03/07 03:46:38;;;;;;;;;;;22.70;38.80;;;;;;5056668;28;20329;-64
2024/03/07 03:49:06;;;;;;;;;;;22.70;38.80;;;;;;5055558;28;20398;-64
2024/03/07 03:51:33;;;;;;;;;;;22.70;38.80;;;;;;5056771;28;20526;-64
2024/03/07 03:54:00;;;;;;;;;;;22.70;38.80;;;;;;5056563;28;20003;-64
2024/03/07 03:56:27;;;;;;;;;;;22.70;38.80;;;;;;5056216;28;19936;-64
2024/03/07 03:58:54;;;;;;;;;;;22.70;38.70;;;;;;5056595;28;19929;-64
2024/03/07 04:01:21;;;;;;;;;;;22.70;38.70;;;;;;5056336;28;20398;-64
2024/03/07 04:03:48;;;;;;;;;;;22.70;38.70;;;;;;5054717;28;19963;-65
2024/03/07 04:06:15;;;;;;;;;;;22.70;38.70;;;;;;5056300;28;19975;-64
2024/03/07 04:08:42;;;;;;;;;;;22.70;38.70;;;;;;5056176;28;20376;-64
2024/03/07 04:11:09;;;;;;;;;;;22.70;38.70;;;;;;5056282;28;19932;-64
2024/03/07 04:13:38;;;;;;;;;;;22.70;38.70;;;;;;5056152;28;20400;-64
2024/03/07 04:16:05;;;;;;;;;;;22.70;38.70;;;;;;5055973;28;20392;-64
2024/03/07 04:18:32;;;;;;;;;;;22.70;38.70;;;;;;5055642;28;20271;-64
2024/03/07 04:20:59;;;;;;;;;;;22.70;38.70;;;;;;5055732;28;19925;-64
2024/03/07 04:23:27;;;;;;;;;;;22.70;38.70;;;;;;5055711;28;20374;-64
2024/03/07 04:25:56;;;;;;;;;;;22.70;38.60;;;;;;5056069;28;19925;-65
2024/03/07 04:28:23;;;;;;;;;;;22.70;38.70;;;;;;5055850;28;19940;-64
2024/03/07 04:30:50;;;;;;;;;;;22.70;38.70;;;;;;5055250;28;20473;-64
2024/03/07 04:33:17;;;;;;;;;;;22.70;38.60;;;;;;5055886;28;19972;-64
2024/03/07 04:35:44;;;;;;;;;;;22.70;38.60;;;;;;5054733;28;19952;-64
2024/03/07 04:38:14;;;;;;;;;;;22.70;38.60;;;;;;5037511;28;20287;-64
2024/03/07 04:40:42;;;;;;;;;;;22.60;38.10;;;;;;5054625;28;20496;-64
2024/03/07 04:43:09;;;;;;;;;;;22.70;37.90;;;;;;5055337;28;19925;-64
2024/03/07 04:45:36;;;;;;;;;;;22.70;37.80;;;;;;5055083;28;19928;-64
2024/03/07 04:48:04;;;;;;;;;;;22.70;37.70;;;;;;5053756;28;20028;-64
2024/03/07 04:50:32;;;;;;;;;;;22.70;37.60;;;;;;5054645;28;20039;-64
2024/03/07 04:52:59;;;;;;;;;;;22.70;37.50;;;;;;5054427;28;19925;-64
2024/03/07 04:55:26;;;;;;;;;;;22.70;37.50;;;;;;5055075;28;20015;-64
2024/03/07 04:57:52;;;;;;;;;;;22.70;37.60;;;;;;5054984;28;20394;-64
2024/03/07 05:00:19;;;;;;;;;;;22.60;37.50;;;;;;5054784;28;20430;-64
2024/03/07 05:02:49;;;;;;;;;;;22.60;37.40;;;;;;5054537;28;20313;-64
2024/03/07 05:05:25;;;;;;;;;;;22.60;37.40;;;;;;5055030;28;20294;-64
2024/03/07 05:07:52;;;;;;;;;;;22.70;37.30;;;;;;5055108;28;19924;-64
2024/03/07 05:10:20;;;;;;;;;;;22.60;37.10;;;;;;5054043;28;20003;-64
2024/03/07 05:12:48;;;;;;;;;;;22.60;37.00;;;;;;5055128;28;19928;-64
2024/03/07 05:15:15;;;;;;;;;;;22.70;37.10;;;;;;5054838;28;19929;-64
2024/03/07 05:17:42;;;;;;;;;;;22.70;37.00;;;;;;5054876;28;19925;-64
2024/03/07 05:20:12;;;;;;;;;;;22.70;37.00;;;;;;5054774;28;19925;-64
2024/03/07 05:22:41;;;;;;;;;;;22.70;36.90;;;;;;5054902;28;19925;-64
2024/03/07 05:25:09;;;;;;;;;;;22.60;36.90;;;;;;5055062;28;20012;-64
2024/03/07 05:27:36;;;;;;;;;;;22.60;37.00;;;;;;5054019;28;20362;-64
2024/03/07 05:30:05;;;;;;;;;;;22.70;36.80;;;;;;5054226;28;19971;-64
2024/03/07 05:32:36;;;;;;;;;;;22.70;36.80;;;;;;5037632;28;19928;-64
2024/03/07 05:35:03;;;;;;;;;;;22.70;36.80;;;;;;5053876;28;19932;-64
2024/03/07 05:37:31;;;;;;;;;;;22.70;37.30;;;;;;5054827;28;19925;-64
2024/03/07 05:39:59;;;;;;;;;;;22.60;36.70;;;;;;5054369;28;19928;-64
2024/03/07 05:42:26;;;;;;;;;;;22.70;36.70;;;;;;5052870;28;19932;-64
2024/03/07 05:44:53;;;;;;;;;;;22.70;36.70;;;;;;5053390;28;19973;-64
2024/03/07 05:47:21;;;;;;;;;;;22.70;36.60;;;;;;5053052;28;20358;-64
2024/03/07 05:49:49;;;;;;;;;;;22.60;36.60;;;;;;5053149;28;19925;-64
2024/03/07 05:52:16;;;;;;;;;;;22.60;36.60;;;;;;5053541;28;19925;-64
2024/03/07 05:54:43;;;;;;;;;;;22.60;36.60;;;;;;5051993;28;20370;-64
2024/03/07 05:57:11;;;;;;;;;;;22.60;36.60;;;;;;5053192;28;19933;-64
2024/03/07 05:59:39;;;;;;;;;;;22.60;36.50;;;;;;5052788;28;20293;-64
2024/03/07 06:02:06;;;;;;;;;;;22.60;36.50;;;;;;5054030;28;19925;-64
2024/03/07 06:04:33;;;;;;;;;;;22.60;36.50;;;;;;5053697;28;20356;-64
2024/03/07 06:07:01;;;;;;;;;;;22.70;36.50;;;;;;5052346;28;19925;-64
2024/03/07 06:09:28;;;;;;;;;;;22.70;36.50;;;;;;5052230;28;19925;-64
2024/03/07 06:11:55;;;;;;;;;;;22.70;36.40;;;;;;5052733;28;19935;-63
2024/03/07 06:14:24;;;;;;;;;;;22.70;36.40;;;;;;5053362;28;19924;-65
2024/03/07 06:16:52;;;;;;;;;;;22.70;36.40;;;;;;5051749;28;19975;-64
2024/03/07 06:19:19;;;;;;;;;;;22.70;36.50;;;;;;5051134;28;19933;-66
2024/03/07 06:21:46;;;;;;;;;;;22.70;36.50;;;;;;5052666;28;19925;-65
2024/03/07 06:24:15;;;;;;;;;;;22.70;36.60;;;;;;5051592;28;19925;-66
2024/03/07 06:29:29;;;;;;;;;;;22.70;36.70;;;;;;5048167;28;19994;-61
2024/03/07 06:31:57;;;;;;;;;;;22.70;36.70;;;;;;5045825;28;19949;-63
2024/03/07 06:34:24;;;;;;;;;;;22.70;36.60;;;;;;5044998;28;19956;-64
2024/03/07 06:36:51;;;;;;;;;;;22.70;36.60;;;;;;5045994;28;20382;-67
2024/03/07 06:39:21;;;;;;;;;;;22.80;36.80;;;;;;5046583;28;19932;-66
2024/03/07 06:41:48;;;;;;;;;;;22.80;36.80;;;;;;5041390;28;19976;-63
2024/03/07 06:44:17;;;;;;;;;;;22.90;36.90;;;;;;5036862;28;19929;-63
2024/03/07 06:46:45;;;;;;;;;;;22.90;37.00;;;;;;5026930;28;19939;-66
2024/03/07 06:49:12;;;;;;;;;;;22.90;37.10;;;;;;5039242;28;19955;-66
2024/03/07 06:51:39;;;;;;;;;;;22.90;37.10;;;;;;5039389;28;20442;-64
2024/03/07 06:54:06;;;;;;;;;;;23.00;37.10;;;;;;5025865;28;20660;-69
2024/03/07 06:56:33;;;;;;;;;;;23.00;36.90;;;;;;5041518;28;19936;-66
2024/03/07 06:59:04;;;;;;;;;;;23.10;36.80;;;;;;5043871;28;19928;-68
2024/03/07 07:01:33;;;;;;;;;;;23.10;36.50;;;;;;5042533;28;20004;-71
2024/03/07 07:04:03;;;;;;;;;;;23.10;36.60;;;;;;5037175;28;19932;-67
2024/03/07 07:06:31;;;;;;;;;;;23.10;36.60;;;;;;5035132;28;19929;-69
2024/03/07 07:08:58;;;;;;;;;;;23.10;36.70;;;;;;5040101;28;19979;-67
2024/03/07 07:11:27;;;;;;;;;;;23.20;36.70;;;;;;5036104;28;20059;-66
2024/03/07 07:13:59;;;;;;;;;;;23.20;36.60;;;;;;5040106;28;19939;-68
2024/03/07 07:16:27;;;;;;;;;;;23.20;36.60;;;;;;5039508;28;20098;-63
2024/03/07 07:18:55;;;;;;;;;;;23.20;36.60;;;;;;5038894;28;19924;-61
2024/03/07 07:21:22;;;;;;;;;;;23.20;36.60;;;;;;5041015;28;20417;-62
2024/03/07 07:23:49;;;;;;;;;;;23.20;36.60;;;;;;5036718;28;19990;-63
2024/03/07 07:26:16;;;;;;;;;;;23.30;36.60;;;;;;5039671;28;20379;-63
2024/03/07 07:28:43;;;;;;;;;;;23.30;36.60;;;;;;5041850;28;19931;-64
2024/03/07 07:31:10;;;;;;;;;;;23.30;36.50;;;;;;5042705;28;20341;-63
2024/03/07 07:33:37;;;;;;;;;;;23.30;36.50;;;;;;5044311;28;19956;-61
2024/03/07 07:36:04;;;;;;;;;;;23.30;36.50;;;;;;5043720;28;19944;-63
2024/03/07 07:38:31;;;;;;;;;;;23.40;36.60;;;;;;5038470;28;20398;-61
2024/03/07 07:40:58;;;;;;;;;;;23.40;36.90;;;;;;5042091;28;19925;-62
2024/03/07 07:43:25;;;;;;;;;;;23.40;36.90;;;;;;5039593;28;19929;-68
2024/03/07 07:46:07;;;;;;;;;;;23.50;37.10;;;;;;5040584;28;20350;-65
2024/03/07 07:48:34;;;;;;;;;;;23.50;37.30;;;;;;5039064;28;20369;-67
2024/03/07 07:51:01;;;;;;;;;;;23.60;37.60;;;;;;5040363;28;20023;-62
2024/03/07 07:53:29;;;;;;;;;;;23.70;37.70;;;;;;5043584;28;19932;-63
2024/03/07 07:55:56;;;;;;;;;;;23.70;37.70;;;;;;5041762;28;19931;-64
2024/03/07 07:58:23;;;;;;;;;;;23.80;37.70;;;;;;5042279;28;20286;-59
2024/03/07 08:00:50;;;;;;;;;;;23.80;37.60;;;;;;5040797;28;20053;-60
2024/03/07 08:03:17;;;;;;;;;;;23.90;37.60;;;;;;5041814;28;20012;-60
2024/03/07 08:05:44;;;;;;;;;;;23.90;37.60;;;;;;5041090;28;20380;-61
2024/03/07 08:08:13;;;;;;;;;;;24.00;37.60;;;;;;5042940;28;19936;-60
2024/03/07 08:10:45;;;;;;;;;;;24.00;37.60;;;;;;5042326;28;20264;-60
2024/03/07 08:13:13;;;;;;;;;;;24.00;37.50;;;;;;5023678;28;19925;-60
2024/03/07 08:15:41;;;;;;;;;;;24.00;37.30;;;;;;5047028;28;19955;-61
2024/03/07 08:18:09;;;;;;;;;;;24.00;37.00;;;;;;5050420;28;19939;-62
2024/03/07 08:20:38;;;;;;;;;;;23.90;35.40;;;;;;5042075;28;20292;-61
2024/03/07 08:23:06;;;;;;;;;;;23.90;36.10;;;;;;5044981;28;20410;-62
2024/03/07 08:25:33;;;;;;;;;;;23.90;36.20;;;;;;5045752;28;20306;-61
2024/03/07 08:28:01;;;;;;;;;;;23.80;36.30;;;;;;5044727;28;20019;-61
2024/03/07 08:30:28;;;;;;;;;;;23.90;36.40;;;;;;5044783;28;19944;-62
2024/03/07 08:32:56;;;;;;;;;;;23.90;36.50;;;;;;5043648;28;20435;-63
2024/03/07 08:35:24;;;;;;;;;;;23.90;36.40;;;;;;5051432;28;19979;-62
2024/03/07 08:37:55;;;;;;;;;;;23.90;36.40;;;;;;5046312;28;20344;-62
2024/03/07 08:40:32;;;;;;;;;;;23.90;36.50;;;;;;5047060;28;20011;-61
2024/03/07 08:43:00;;;;;;;;;;;24.00;36.60;;;;;;5043785;28;19933;-62
2024/03/07 08:45:28;;;;;;;;;;;24.00;36.60;;;;;;5047056;28;19931;-60
2024/03/07 08:47:57;;;;;;;;;;;24.00;36.70;;;;;;5048778;28;19929;-61
2024/03/07 08:50:26;;;;;;;;;;;24.10;36.80;;;;;;5046309;28;19933;-61
2024/03/07 08:52:54;;;;;;;;;;;24.10;36.80;;;;;;5046850;28;19929;-62
2024/03/07 08:55:24;;;;;;;;;;;24.10;36.80;;;;;;5048224;28;20003;-61
2024/03/07 08:57:52;;;;;;;;;;;24.10;36.90;;;;;;5043670;28;20341;-63
2024/03/07 09:00:23;;;;;;;;;;;24.10;37.00;;;;;;5047043;28;20294;-62
2024/03/07 09:03:03;;;;;;;;;;;24.10;37.20;;;;;;5048160;28;19924;-63
2024/03/07 09:05:33;;;;;;;;;;;24.10;37.10;;;;;;5047668;28;19932;-61
2024/03/07 09:08:02;;;;;;;;;;;24.10;37.10;;;;;;5049128;28;20423;-61
2024/03/07 09:10:30;;;;;;;;;;;24.20;37.10;;;;;;5050109;28;19971;-63
2024/03/07 09:12:58;;;;;;;;;;;24.20;37.10;;;;;;5049007;28;20003;-62
2024/03/07 09:15:25;;;;;;;;;;;24.20;37.20;;;;;;5047179;28;19970;-60
2024/03/07 09:17:52;;;;;;;;;;;24.30;37.20;;;;;;5052963;28;20037;-61
2024/03/07 09:20:20;;;;;;;;;;;24.30;37.10;;;;;;5048334;28;19932;-59
2024/03/07 09:22:48;;;;;;;;;;;24.30;36.90;;;;;;5047091;28;19968;-61
2024/03/07 09:25:16;;;;;;;;;;;24.30;36.90;;;;;;5047849;28;19925;-61
2024/03/07 09:27:44;;;;;;;;;;;24.30;36.80;;;;;;5046903;28;19938;-61
2024/03/07 09:30:18;;;;;;;;;;;24.30;36.80;;;;;;5043929;28;20332;-60
2024/03/07 09:32:45;;;;;;;;;;;24.30;36.90;;;;;;5041200;28;20491;-59
2024/03/07 09:35:13;;;;;;;;;;;24.30;37.00;;;;;;5040238;28;19936;-60
2024/03/07 09:37:42;;;;;;;;;;;24.30;37.00;;;;;;5042694;28;19933;-61
2024/03/07 09:40:11;;;;;;;;;;;24.30;37.00;;;;;;5047127;28;19931;-60
2024/03/07 09:42:47;;;;;;;;;;;24.40;37.10;;;;;;5045361;28;20411;-60
2024/03/07 09:45:16;;;;;;;;;;;24.30;36.90;;;;;;5043585;28;19937;-60
2024/03/07 09:47:47;;;;;;;;;;;24.30;36.90;;;;;;5047765;28;20356;-62
2024/03/07 09:50:18;;;;;;;;;;;24.40;36.90;;;;;;5043336;28;19928;-64
2024/03/07 09:52:49;;;;;;;;;;;24.40;36.90;;;;;;5044127;28;20623;-61
2024/03/07 09:55:20;;;;;;;;;;;24.30;36.80;;;;;;5042883;28;19933;-61
2024/03/07 09:57:48;;;;;;;;;;;24.40;36.90;;;;;;5045364;28;19925;-63
2024/03/07 10:00:22;;;;;;;;;;;24.40;36.90;;;;;;5040536;28;19933;-61
2024/03/07 10:02:54;;;;;;;;;;;24.40;36.90;;;;;;5043404;28;20008;-62
2024/03/07 10:05:22;;;;;;;;;;;24.40;36.90;;;;;;5037998;28;19924;-63
2024/03/07 10:07:50;;;;;;;;;;;24.40;36.70;;;;;;5042338;28;20306;-59
2024/03/07 10:10:18;;;;;;;;;;;24.40;36.70;;;;;;5041249;28;20291;-59
2024/03/07 10:12:46;;;;;;;;;;;24.40;36.70;;;;;;5043290;28;19929;-59
2024/03/07 10:15:13;;;;;;;;;;;24.40;36.50;;;;;;5041490;28;19931;-58
2024/03/07 10:17:43;;;;;;;;;;;24.40;36.50;;;;;;5046217;28;19932;-59
2024/03/07 10:20:14;;;;;;;;;;;24.40;36.40;;;;;;5046711;28;19929;-60
2024/03/07 10:22:41;;;;;;;;;;;24.40;36.30;;;;;;5041800;28;19947;-61
2024/03/07 10:25:09;;;;;;;;;;;24.40;36.20;;;;;;5042750;28;20304;-60
2024/03/07 10:27:37;;;;;;;;;;;24.40;36.10;;;;;;5043001;28;19933;-60
2024/03/07 10:30:07;;;;;;;;;;;24.40;36.30;;;;;;5043258;28;19931;-60
2024/03/07 10:32:34;;;;;;;;;;;24.40;36.20;;;;;;5043183;28;19933;-60
2024/03/07 10:35:03;;;;;;;;;;;24.40;36.30;;;;;;5025663;28;19936;-63
2024/03/07 10:37:30;;;;;;;;;;;24.40;36.50;;;;;;5044741;28;19947;-63
2024/03/07 10:39:57;;;;;;;;;;;24.50;36.60;;;;;;5047870;28;19932;-63
2024/03/07 10:42:27;;;;;;;;;;;24.50;36.60;;;;;;5043628;28;19960;-65
2024/03/07 10:44:56;;;;;;;;;;;24.50;36.60;;;;;;5044428;28;20023;-63
2024/03/07 10:47:24;;;;;;;;;;;24.50;36.50;;;;;;5029232;28;20321;-64
2024/03/07 10:50:14;;;;;;;;;;;24.50;36.40;;;;;;5043275;28;20006;-63
2024/03/07 10:52:50;;;;;;;;;;;24.50;36.30;;;;;;5047461;28;19925;-62
2024/03/07 10:55:32;;;;;;;;;;;24.50;36.20;;;;;;5045944;28;19925;-65
2024/03/07 10:58:06;;;;;;;;;;;24.50;36.20;;;;;;5043644;28;20023;-64
2024/03/07 11:00:36;;;;;;;;;;;24.50;36.10;;;;;;5025106;28;20012;-63
2024/03/07 11:03:07;;;;;;;;;;;24.50;36.10;;;;;;5042165;28;19986;-64
2024/03/07 11:05:34;;;;;;;;;;;24.50;36.00;;;;;;5060565;28;19932;-65
2024/03/07 11:08:11;;;;;;;;;;;24.50;36.00;;;;;;5052345;28;19955;-65
2024/03/07 11:10:39;;;;;;;;;;;24.50;35.90;;;;;;5046738;28;19971;-68
2024/03/07 11:13:09;;;;;;;;;;;24.50;36.00;;;;;;5045575;28;19940;-68
2024/03/07 11:15:37;;;;;;;;;;;24.50;36.00;;;;;;5050548;28;19928;-68
2024/03/07 11:18:04;;;;;;;;;;;24.50;35.90;;;;;;5049219;28;19960;-68
2024/03/07 11:20:35;;;;;;;;;;;24.50;35.90;;;;;;5031848;28;19924;-67
2024/03/07 11:23:22;;;;;;;;;;;24.50;36.00;;;;;;5046893;28;19924;-68
2024/03/07 11:25:50;;;;;;;;;;;24.50;36.70;;;;;;5045063;28;19932;-64
2024/03/07 11:28:20;;;;;;;;;;;24.60;36.90;;;;;;5045503;28;20020;-67
2024/03/07 11:30:47;;;;;;;;;;;24.60;37.00;;;;;;5045608;28;19947;-67
2024/03/07 11:33:17;;;;;;;;;;;24.60;37.10;;;;;;5044596;28;20011;-68
2024/03/07 11:35:48;;;;;;;;;;;24.60;37.00;;;;;;5040985;28;19991;-67
2024/03/07 11:38:23;;;;;;;;;;;24.60;37.00;;;;;;5040269;28;19986;-70
2024/03/07 11:40:51;;;;;;;;;;;24.60;36.90;;;;;;5045995;28;19936;-69
2024/03/07 11:43:18;;;;;;;;;;;24.70;36.90;;;;;;5045783;28;19925;-69
2024/03/07 11:45:45;;;;;;;;;;;24.70;36.90;;;;;;5043880;28;19933;-66
2024/03/07 11:48:12;;;;;;;;;;;24.70;36.70;;;;;;5042625;28;19931;-66
2024/03/07 11:50:40;;;;;;;;;;;24.70;36.40;;;;;;5044204;28;20279;-66
2024/03/07 11:53:08;;;;;;;;;;;24.70;36.30;;;;;;5047942;28;19925;-66
2024/03/07 11:55:45;;;;;;;;;;;24.70;36.40;;;;;;5031729;28;19929;-68
2024/03/07 11:58:16;;;;;;;;;;;24.80;36.50;;;;;;5044680;28;19986;-67
2024/03/07 12:00:47;;;;;;;;;;;24.80;36.50;;;;;;5048413;28;19925;-69
2024/03/07 12:03:16;;;;;;;;;;;24.80;36.50;;;;;;5045051;28;19952;-70
2024/03/07 12:05:44;;;;;;;;;;;24.80;36.60;;;;;;5046072;28;20415;-62
2024/03/07 12:08:11;;;;;;;;;;;24.80;36.70;;;;;;5047285;28;19932;-62
2024/03/07 12:10:39;;;;;;;;;;;24.70;36.80;;;;;;5049667;28;19931;-62
2024/03/07 12:13:07;;;;;;;;;;;24.70;36.80;;;;;;5048755;28;20015;-62
2024/03/07 12:15:34;;;;;;;;;;;24.70;36.70;;;;;;5031546;28;19936;-63
2024/03/07 12:18:02;;;;;;;;;;;24.70;37.30;;;;;;5049298;28;19935;-63
2024/03/07 12:20:33;;;;;;;;;;;24.70;36.80;;;;;;5046556;28;19929;-62
2024/03/07 12:23:08;;;;;;;;;;;24.70;36.80;;;;;;5051252;28;19932;-66
2024/03/07 12:25:36;;;;;;;;;;;24.70;36.80;;;;;;5044476;28;19929;-64
2024/03/07 12:28:10;;;;;;;;;;;24.70;36.80;;;;;;5048861;28;20408;-64
2024/03/07 12:30:52;;;;;;;;;;;24.70;36.90;;;;;;5048991;28;20413;-66
2024/03/07 12:33:19;;;;;;;;;;;24.70;37.60;;;;;;5044807;28;19932;-66
2024/03/07 12:35:49;;;;;;;;;;;24.70;37.10;;;;;;5046948;28;19929;-63
2024/03/07 12:38:17;;;;;;;;;;;24.70;37.10;;;;;;5029195;28;19964;-67
2024/03/07 12:40:45;;;;;;;;;;;24.70;37.10;;;;;;5046255;28;19932;-65
2024/03/07 12:43:14;;;;;;;;;;;24.80;37.20;;;;;;5046232;28;20006;-68
2024/03/07 12:45:49;;;;;;;;;;;24.80;37.10;;;;;;5040022;28;19929;-66
2024/03/07 12:48:17;;;;;;;;;;;24.80;37.10;;;;;;5044960;28;19929;-67
2024/03/07 12:50:53;;;;;;;;;;;24.80;37.10;;;;;;5045021;28;19931;-63
2024/03/07 12:53:25;;;;;;;;;;;24.80;37.20;;;;;;5049092;28;20421;-61
2024/03/07 12:55:52;;;;;;;;;;;24.70;37.10;;;;;;5047764;28;19925;-64
2024/03/07 12:58:20;;;;;;;;;;;24.80;37.20;;;;;;5046627;28;19940;-64
2024/03/07 13:00:47;;;;;;;;;;;24.70;37.10;;;;;;5026885;28;19933;-67
2024/03/07 13:03:17;;;;;;;;;;;24.80;37.20;;;;;;5031628;28;19937;-66
2024/03/07 13:05:44;;;;;;;;;;;24.70;37.20;;;;;;5042338;28;20432;-64
2024/03/07 13:08:12;;;;;;;;;;;24.70;37.20;;;;;;5048153;28;19963;-64
2024/03/07 13:10:39;;;;;;;;;;;24.70;37.20;;;;;;5045998;28;20012;-64
2024/03/07 13:13:07;;;;;;;;;;;24.70;37.30;;;;;;5043240;28;21527;-64
2024/03/07 13:15:37;;;;;;;;;;;24.70;37.20;;;;;;5041553;28;19943;-64
2024/03/07 13:18:04;;;;;;;;;;;24.70;37.00;;;;;;5043442;28;19931;-65
2024/03/07 13:20:32;;;;;;;;;;;24.70;36.90;;;;;;5044529;28;22375;-65
2024/03/07 13:23:00;;;;;;;;;;;24.70;36.90;;;;;;5045351;28;19933;-64
2024/03/07 13:25:31;;;;;;;;;;;24.70;36.90;;;;;;5026434;28;19932;-67
2024/03/07 13:28:04;;;;;;;;;;;24.70;37.00;;;;;;5047427;28;20028;-64
2024/03/07 13:30:31;;;;;;;;;;;24.70;37.10;;;;;;5046962;28;20019;-63
2024/03/07 13:32:58;;;;;;;;;;;24.70;37.10;;;;;;5041853;28;19939;-64
2024/03/07 13:35:27;;;;;;;;;;;24.60;37.10;;;;;;5043261;28;20007;-64
2024/03/07 13:37:55;;;;;;;;;;;24.70;36.80;;;;;;5048747;28;20386;-65
2024/03/07 13:40:22;;;;;;;;;;;24.70;36.60;;;;;;5047119;28;19983;-67
2024/03/07 13:42:54;;;;;;;;;;;24.60;36.50;;;;;;5044237;28;19929;-67
2024/03/07 13:45:22;;;;;;;;;;;24.60;36.60;;;;;;5044269;28;20460;-66
2024/03/07 13:47:49;;;;;;;;;;;24.60;37.00;;;;;;5049068;28;19929;-66
2024/03/07 13:50:18;;;;;;;;;;;24.70;36.30;;;;;;5045143;28;19928;-67
2024/03/07 13:53:28;;;;;;;;;;;24.70;36.20;;;;;;5044873;28;20333;-66
2024/03/07 13:56:12;;;;;;;;;;;24.70;36.00;;;;;;5043353;28;19925;-65
2024/03/07 13:58:57;;;;;;;;;;;24.70;36.00;;;;;;5045573;28;20030;-68
2024/03/07 14:01:45;;;;;;;;;;;24.70;36.00;;;;;;5041474;28;19964;-67
2024/03/07 14:04:27;;;;;;;;;;;24.70;36.10;;;;;;5046083;28;19959;-66
2024/03/07 14:07:14;;;;;;;;;;;24.70;36.10;;;;;;5044088;28;20319;-71
2024/03/07 14:09:49;;;;;;;;;;;24.70;36.00;;;;;;5045283;28;19935;-70
2024/03/07 14:12:36;;;;;;;;;;;24.70;36.10;;;;;;5047662;28;19924;-67
2024/03/07 14:15:24;;;;;;;;;;;24.70;36.30;;;;;;5046622;28;20045;-70
2024/03/07 14:18:14;;;;;;;;;;;24.60;36.30;;;;;;5042163;28;20239;-70
2024/03/07 14:21:03;;;;;;;;;;;24.60;36.40;;;;;;5028146;28;20032;-68
2024/03/07 14:23:50;;;;;;;;;;;24.60;36.60;;;;;;5042752;28;20321;-69
2024/03/07 14:26:37;;;;;;;;;;;24.60;36.80;;;;;;5046165;28;19928;-68
2024/03/07 14:29:26;;;;;;;;;;;24.60;36.90;;;;;;5029616;28;19924;-69